Time;durP1;ratioP1;P1;durP2;ratioP2;P2;SDS_P1;SDS_P2;PMS_P1;PMS_P2;Temp;Humidity;BMP_temperature;BMP_pressure;BME280_temperature;BME280_humidity;BME280_pressure;Samples;Min_cycle;Max_cycle;Signal;HPM_P1;HPM_P2
2023/02/21 02:14:57;;;;;;;60.20;36.80;;;7.20;95.10;;;;;;6276549;22;20099;-66
2023/02/21 02:17:48;;;;;;;59.17;38.30;;;7.20;95.30;;;;;;6276254;22;20070;-66
2023/02/21 02:20:48;;;;;;;57.83;38.13;;;7.30;95.40;;;;;;6276506;22;20322;-66
2023/02/21 02:23:23;;;;;;;57.93;38.73;;;7.30;95.50;;;;;;6240429;22;20041;-66
2023/02/21 02:25:57;;;;;;;58.33;39.90;;;7.30;95.40;;;;;;6276390;22;20053;-66
2023/02/21 02:28:42;;;;;;;59.47;39.43;;;7.30;95.50;;;;;;6275931;22;20004;-66
2023/02/21 02:31:13;;;;;;;57.67;37.93;;;7.30;95.60;;;;;;6276582;22;19999;-66
2023/02/21 02:33:39;;;;;;;57.50;38.67;;;7.30;95.70;;;;;;6276410;22;20304;-66
2023/02/21 02:36:23;;;;;;;58.40;39.23;;;7.40;95.80;;;;;;6275627;22;20057;-66
2023/02/21 02:39:18;;;;;;;58.97;40.93;;;7.30;95.80;;;;;;6276217;22;20030;-66
2023/02/21 02:41:57;;;;;;;66.27;41.07;;;7.30;95.90;;;;;;6256601;22;20091;-66
2023/02/21 02:44:40;;;;;;;61.30;40.77;;;7.40;96.10;;;;;;6275890;22;20000;-66
2023/02/21 02:47:07;;;;;;;;;;;7.40;96.20;;;;;;6276915;22;20004;-66
2023/02/21 02:49:37;;;;;;;56.47;38.00;;;7.40;96.20;;;;;;6276595;22;20225;-66
2023/02/21 02:52:08;;;;;;;60.13;39.63;;;7.40;96.20;;;;;;6276315;22;20014;-66
2023/02/21 02:54:34;;;;;;;65.60;41.00;;;7.40;96.30;;;;;;6276086;22;19999;-66
2023/02/21 02:57:03;;;;;;;62.07;40.77;;;7.40;96.30;;;;;;6275623;22;20003;-66
2023/02/21 02:59:32;;;;;;;63.30;40.13;;;7.40;96.40;;;;;;6275931;22;20050;-66
2023/02/21 03:02:41;;;;;;;64.40;40.23;;;7.50;96.40;;;;;;6276182;22;20007;-66
2023/02/21 03:05:18;;;;;;;62.20;40.50;;;7.50;96.40;;;;;;6276119;22;20423;-66
2023/02/21 03:08:06;;;;;;;65.00;41.53;;;7.50;96.40;;;;;;6275924;22;20032;-66
2023/02/21 03:10:47;;;;;;;64.13;41.57;;;7.50;96.30;;;;;;6275941;22;20414;-66
2023/02/21 03:13:44;;;;;;;63.77;41.93;;;7.50;96.30;;;;;;6276082;22;20087;-66
2023/02/21 03:16:31;;;;;;;60.40;39.97;;;7.50;96.30;;;;;;6276126;22;20409;-65
2023/02/21 03:19:18;;;;;;;63.00;42.07;;;7.50;96.30;;;;;;6277221;22;20082;-66
2023/02/21 03:21:50;;;;;;;62.00;40.50;;;7.50;96.20;;;;;;6277814;22;20012;-66
2023/02/21 03:24:18;;;;;;;63.42;41.97;;;7.50;96.30;;;;;;6278439;22;20070;-66
2023/02/21 03:26:47;;;;;;;64.70;41.33;;;7.50;96.30;;;;;;6278089;22;20004;-66
2023/02/21 03:29:14;;;;;;;62.30;41.07;;;7.50;96.30;;;;;;6278449;22;19999;-66
2023/02/21 03:31:46;;;;;;;59.57;40.63;;;7.50;96.40;;;;;;6278284;22;20004;-66
2023/02/21 03:34:13;;;;;;;61.75;41.47;;;7.50;96.30;;;;;;6278628;22;20023;-66
2023/02/21 03:36:40;;;;;;;61.47;40.73;;;7.50;96.40;;;;;;6277981;22;20000;-66
2023/02/21 03:39:06;;;;;;;63.93;42.70;;;7.50;96.50;;;;;;6278135;22;20010;-66
2023/02/21 03:41:32;;;;;;;61.77;40.80;;;7.50;96.50;;;;;;6277901;22;19999;-66
2023/02/21 03:43:57;;;;;;;65.00;42.57;;;7.50;96.50;;;;;;6277860;22;19999;-66
2023/02/21 03:46:23;;;;;;;59.50;40.80;;;7.50;96.50;;;;;;6277756;22;20007;-66
2023/02/21 03:48:49;;;;;;;63.23;39.57;;;7.50;96.60;;;;;;6277848;22;20066;-66
2023/02/21 03:51:15;;;;;;;61.33;42.40;;;7.50;96.60;;;;;;6277777;22;20066;-66
2023/02/21 03:53:41;;;;;;;58.93;39.80;;;7.50;96.50;;;;;;6277965;22;19999;-66
2023/02/21 03:56:07;;;;;;;62.60;39.50;;;7.40;96.30;;;;;;6278038;22;20079;-66
2023/02/21 03:58:32;;;;;;;57.53;38.43;;;7.40;96.30;;;;;;6277737;22;20030;-66
2023/02/21 04:00:58;;;;;;;60.90;40.53;;;7.30;96.30;;;;;;6277915;22;19995;-66
2023/02/21 04:03:24;;;;;;;59.83;39.77;;;7.40;96.30;;;;;;6277771;22;20019;-66
2023/02/21 04:05:50;;;;;;;68.40;40.27;;;7.40;96.40;;;;;;6278010;22;20000;-66
2023/02/21 04:08:16;;;;;;;65.03;41.67;;;7.30;96.50;;;;;;6278088;22;20007;-66
2023/02/21 04:10:42;;;;;;;58.10;39.97;;;7.30;96.50;;;;;;6277567;22;20000;-66
2023/02/21 04:13:09;;;;;;;63.40;39.87;;;7.30;96.60;;;;;;6277928;22;20007;-66
2023/02/21 04:15:35;;;;;;;61.27;39.43;;;7.30;96.70;;;;;;6277988;22;20003;-66
2023/02/21 04:18:00;;;;;;;61.30;40.63;;;7.30;96.80;;;;;;6277573;22;20582;-66
2023/02/21 04:20:26;;;;;;;58.07;38.97;;;7.40;96.80;;;;;;6277810;22;20004;-66
2023/02/21 04:22:52;;;;;;;62.67;40.77;;;7.40;96.90;;;;;;6277271;22;20054;-66
2023/02/21 04:25:18;;;;;;;61.87;40.97;;;7.40;97.10;;;;;;6277696;22;20062;-67
2023/02/21 04:27:43;;;;;;;57.67;39.63;;;7.50;97.10;;;;;;6277630;22;20008;-66
2023/02/21 04:30:10;;;;;;;57.60;38.80;;;7.50;97.00;;;;;;6277568;22;20020;-66
2023/02/21 04:32:36;;;;;;;58.20;38.77;;;7.50;96.90;;;;;;6277359;22;20319;-66
2023/02/21 04:35:01;;;;;;;54.80;38.03;;;7.50;96.80;;;;;;6277445;22;20020;-66
2023/02/21 04:37:27;;;;;;;55.43;38.13;;;7.50;96.70;;;;;;6277297;22;20031;-66
2023/02/21 04:39:53;;;;;;;57.23;38.13;;;7.50;96.70;;;;;;6277607;22;20027;-66
2023/02/21 04:42:19;;;;;;;57.87;37.40;;;7.50;96.60;;;;;;6277491;22;20087;-66
2023/02/21 04:44:45;;;;;;;54.67;36.27;;;7.50;96.70;;;;;;6277107;22;19999;-66
2023/02/21 04:47:10;;;;;;;56.87;38.53;;;7.50;96.70;;;;;;6277564;22;20150;-66
2023/02/21 04:49:36;;;;;;;56.43;37.70;;;7.50;96.70;;;;;;6277432;22;20000;-66
2023/02/21 04:52:02;;;;;;;59.30;37.73;;;7.50;96.90;;;;;;6277481;22;20004;-66
2023/02/21 04:54:27;;;;;;;56.90;36.83;;;7.50;96.90;;;;;;6277612;22;20079;-66
2023/02/21 04:56:53;;;;;;;59.43;37.33;;;7.50;97.10;;;;;;6277224;22;20061;-66
2023/02/21 04:59:19;;;;;;;54.63;38.50;;;7.50;97.20;;;;;;6277357;22;20015;-66
2023/02/21 05:01:45;;;;;;;57.03;38.07;;;7.50;97.40;;;;;;6277000;22;20091;-66
2023/02/21 05:04:10;;;;;;;56.40;36.33;;;7.50;97.40;;;;;;6277404;22;20049;-66
2023/02/21 05:06:36;;;;;;;57.13;38.20;;;7.60;97.50;;;;;;6277351;22;20004;-66
2023/02/21 05:09:03;;;;;;;57.17;37.37;;;7.60;97.70;;;;;;6277286;22;19999;-66
2023/02/21 05:11:33;;;;;;;54.97;38.00;;;7.60;97.80;;;;;;6277072;22;20003;-66
2023/02/21 05:13:59;;;;;;;53.13;36.37;;;7.60;97.90;;;;;;6276794;22;20023;-66
2023/02/21 05:16:25;;;;;;;52.57;35.77;;;7.60;98.00;;;;;;6277278;22;20482;-66
2023/02/21 05:18:50;;;;;;;51.87;35.73;;;7.60;98.10;;;;;;6277617;22;20082;-66
2023/02/21 05:21:18;;;;;;;50.77;35.73;;;7.60;98.10;;;;;;6276873;22;20012;-66
2023/02/21 05:23:54;;;;;;;57.60;36.20;;;7.60;98.30;;;;;;6276878;22;20057;-66
2023/02/21 05:26:23;;;;;;;58.70;36.97;;;7.70;98.50;;;;;;6277404;22;20011;-66
2023/02/21 05:28:49;;;;;;;58.37;37.43;;;7.70;98.50;;;;;;6277075;22;20007;-66
2023/02/21 05:31:15;;;;;;;52.23;34.50;;;7.70;98.50;;;;;;6277818;22;20038;-66
2023/02/21 05:33:41;;;;;;;56.40;36.10;;;7.70;98.50;;;;;;6277291;22;20008;-66
2023/02/21 05:36:07;;;;;;;51.77;35.07;;;7.70;98.50;;;;;;6277096;22;20008;-66
2023/02/21 05:38:42;;;;;;;58.03;35.10;;;7.80;98.50;;;;;;6276833;22;20074;-66
2023/02/21 05:41:08;;;;;;;58.33;36.47;;;7.80;98.50;;;;;;6276565;22;20004;-66
2023/02/21 05:43:34;;;;;;;53.27;34.43;;;7.80;98.40;;;;;;6276528;22;20041;-66
2023/02/21 05:45:59;;;;;;;51.37;34.67;;;7.80;98.30;;;;;;6277065;22;20085;-66
2023/02/21 05:48:25;;;;;;;52.97;34.03;;;7.80;98.30;;;;;;6277126;22;20312;-66
2023/02/21 05:50:51;;;;;;;53.97;35.13;;;7.80;98.30;;;;;;6276554;22;19996;-66
2023/02/21 05:53:17;;;;;;;52.30;34.00;;;7.80;98.40;;;;;;6276619;22;20061;-66
2023/02/21 05:55:42;;;;;;;49.00;35.03;;;7.80;98.40;;;;;;6276656;22;20000;-66
2023/02/21 05:58:08;;;;;;;50.00;36.17;;;7.90;98.30;;;;;;6277238;22;20004;-66
2023/02/21 06:00:34;;;;;;;52.63;33.57;;;7.90;98.30;;;;;;6276890;22;19996;-66
2023/02/21 06:03:00;;;;;;;52.77;36.13;;;7.90;98.30;;;;;;6276649;22;20012;-66
2023/02/21 06:05:25;;;;;;;49.13;33.87;;;7.90;98.20;;;;;;6276880;22;20003;-65
2023/02/21 06:07:51;;;;;;;50.80;35.17;;;7.90;98.20;;;;;;6276519;22;20023;-66
2023/02/21 06:10:18;;;;;;;53.37;35.03;;;7.90;98.20;;;;;;6276139;22;20000;-66
2023/02/21 06:12:44;;;;;;;54.13;34.67;;;7.90;98.20;;;;;;6276498;22;20007;-66
2023/02/21 06:15:11;;;;;;;55.00;35.83;;;7.90;98.10;;;;;;6276248;22;20000;-66
2023/02/21 06:17:37;;;;;;;53.10;35.30;;;7.80;98.10;;;;;;6276485;22;20291;-66
2023/02/21 06:20:04;;;;;;;59.70;34.60;;;7.90;98.20;;;;;;6276409;22;20084;-66
2023/02/21 06:22:30;;;;;;;58.97;35.27;;;7.80;98.20;;;;;;6275933;22;20021;-66
2023/02/21 06:24:56;;;;;;;65.03;35.07;;;7.80;98.30;;;;;;6276204;22;20003;-66
2023/02/21 06:27:22;;;;;;;58.97;34.97;;;7.90;98.30;;;;;;6276132;22;20007;-66
2023/02/21 06:29:48;;;;;;;66.00;34.90;;;7.80;98.10;;;;;;6276195;22;20075;-66
2023/02/21 06:32:14;;;;;;;53.83;34.27;;;7.80;98.20;;;;;;6276256;22;20445;-66
2023/02/21 06:34:39;;;;;;;55.10;34.97;;;7.80;98.20;;;;;;6276461;22;20407;-66
2023/02/21 06:37:05;;;;;;;59.70;34.63;;;7.80;98.20;;;;;;6276488;22;19995;-66
2023/02/21 06:39:31;;;;;;;54.23;33.60;;;7.80;98.20;;;;;;6276308;22;20007;-66
2023/02/21 06:41:58;;;;;;;62.80;34.73;;;7.80;98.30;;;;;;6276266;22;20057;-65
2023/02/21 06:44:24;;;;;;;60.20;35.93;;;7.90;98.20;;;;;;6275896;22;20086;-66
2023/02/21 06:46:50;;;;;;;57.77;33.83;;;7.90;98.30;;;;;;6276625;22;20034;-66
2023/02/21 06:49:15;;;;;;;66.07;34.37;;;7.80;98.20;;;;;;6275891;22;20000;-66
2023/02/21 06:51:41;;;;;;;59.20;35.10;;;7.80;98.30;;;;;;6275903;22;20014;-66
2023/02/21 06:54:08;;;;;;;59.47;36.90;;;7.80;98.50;;;;;;6249037;22;20000;-67
2023/02/21 06:56:34;;;;;;;52.80;33.67;;;7.80;98.50;;;;;;6276128;22;20000;-66
2023/02/21 06:58:59;;;;;;;62.30;36.20;;;7.80;98.50;;;;;;6275771;22;20028;-65
2023/02/21 07:01:27;;;;;;;52.80;34.77;;;7.80;98.40;;;;;;6276028;22;20083;-66
2023/02/21 07:03:54;;;;;;;57.60;35.40;;;7.80;98.60;;;;;;6275826;22;20015;-66
2023/02/21 07:06:20;;;;;;;54.77;35.23;;;7.90;98.70;;;;;;6276155;22;20030;-67
2023/02/21 07:08:47;;;;;;;55.40;36.57;;;7.90;98.70;;;;;;6275637;22;20003;-66
2023/02/21 07:11:14;;;;;;;59.13;35.07;;;7.90;98.70;;;;;;6274959;22;19999;-66
2023/02/21 07:13:40;;;;;;;64.77;35.30;;;7.90;98.80;;;;;;6275260;22;20271;-66
2023/02/21 07:16:06;;;;;;;61.07;35.43;;;7.90;98.70;;;;;;6275253;22;20015;-67
2023/02/21 07:18:32;;;;;;;79.57;37.40;;;8.00;98.70;;;;;;6275270;22;20000;-66
2023/02/21 07:20:58;;;;;;;65.30;36.07;;;8.00;98.70;;;;;;6275698;22;20006;-67
2023/02/21 07:23:25;;;;;;;66.83;37.40;;;8.00;98.70;;;;;;6275913;22;20054;-66
2023/02/21 07:25:51;;;;;;;58.23;35.83;;;8.00;98.70;;;;;;6275426;22;19999;-67
2023/02/21 07:28:17;;;;;;;63.03;35.33;;;8.00;98.70;;;;;;6275489;22;20003;-66
2023/02/21 07:30:43;;;;;;;58.43;35.63;;;8.10;98.70;;;;;;6275539;22;19999;-67
2023/02/21 07:33:08;;;;;;;61.53;36.00;;;8.10;98.70;;;;;;6275646;22;20000;-67
2023/02/21 07:35:34;;;;;;;54.70;35.20;;;8.10;98.60;;;;;;6275014;22;20008;-66
2023/02/21 07:38:00;;;;;;;56.27;35.80;;;8.10;98.70;;;;;;6274816;22;20079;-66
2023/02/21 07:40:26;;;;;;;57.73;36.10;;;8.10;98.70;;;;;;6275024;22;20385;-66
2023/02/21 07:42:52;;;;;;;57.00;35.30;;;8.10;98.80;;;;;;6274918;22;20087;-66
2023/02/21 07:45:18;;;;;;;52.50;35.07;;;8.10;98.80;;;;;;6275693;22;20078;-66
2023/02/21 07:47:48;;;;;;;52.03;33.97;;;8.10;98.70;;;;;;6275460;22;20008;-66
2023/02/21 07:50:15;;;;;;;53.57;35.30;;;8.20;98.80;;;;;;6275552;22;20000;-66
2023/02/21 07:52:40;;;;;;;56.20;35.20;;;8.20;98.70;;;;;;6275544;22;20010;-67
2023/02/21 07:55:07;;;;;;;55.53;34.43;;;8.20;98.70;;;;;;6275763;22;20000;-66
2023/02/21 07:57:32;;;;;;;62.00;34.87;;;8.20;98.80;;;;;;6275951;22;20008;-67
2023/02/21 07:59:58;;;;;;;55.20;35.03;;;8.20;98.80;;;;;;6274992;22;19996;-67
2023/02/21 08:02:24;;;;;;;66.67;36.60;;;8.20;98.90;;;;;;6275529;22;20087;-71
2023/02/21 08:04:51;;;;;;;55.43;38.20;;;8.20;98.90;;;;;;6275136;22;20003;-67
2023/02/21 08:07:17;;;;;;;61.53;39.17;;;8.20;99.00;;;;;;6277679;22;20008;-67
2023/02/21 08:09:42;;;;;;;58.20;36.73;;;8.20;99.00;;;;;;6277159;22;20049;-66
2023/02/21 08:12:08;;;;;;;57.07;38.00;;;8.20;98.90;;;;;;6277165;22;20000;-67
2023/02/21 08:14:34;;;;;;;61.17;38.80;;;8.20;98.90;;;;;;6277886;22;20006;-67
2023/02/21 08:17:00;;;;;;;70.13;38.00;;;8.20;98.90;;;;;;6277513;22;20034;-67
2023/02/21 08:19:25;;;;;;;62.00;37.83;;;8.20;98.90;;;;;;6276881;22;20000;-67
2023/02/21 08:21:51;;;;;;;66.30;38.73;;;8.30;99.00;;;;;;6276908;22;20018;-67
2023/02/21 08:24:18;;;;;;;57.97;38.63;;;8.20;99.00;;;;;;6276738;22;20007;-67
2023/02/21 08:26:44;;;;;;;67.83;37.63;;;8.30;99.10;;;;;;6277464;22;20004;-67
2023/02/21 08:29:11;;;;;;;58.87;36.73;;;8.30;99.00;;;;;;6277559;22;20004;-68
2023/02/21 08:31:38;;;;;;;58.47;37.40;;;8.30;99.00;;;;;;6277439;22;20027;-67
2023/02/21 08:34:05;;;;;;;63.93;38.30;;;8.30;99.00;;;;;;6277410;22;19995;-67
2023/02/21 08:36:33;;;;;;;64.10;38.60;;;8.30;99.00;;;;;;6276998;22;20014;-66
2023/02/21 08:38:58;;;;;;;65.40;38.03;;;8.30;99.00;;;;;;6276747;22;20482;-67
2023/02/21 08:41:24;;;;;;;74.20;38.97;;;8.30;99.10;;;;;;6277087;22;20010;-65
2023/02/21 08:43:51;;;;;;;66.17;38.93;;;8.40;99.10;;;;;;6276631;22;20004;-68
2023/02/21 08:46:16;;;;;;;64.73;39.97;;;8.40;99.10;;;;;;6276437;22;20000;-67
2023/02/21 08:48:42;;;;;;;66.10;39.40;;;8.40;99.20;;;;;;6276138;22;20445;-68
2023/02/21 08:51:08;;;;;;;63.10;38.80;;;8.40;99.20;;;;;;6275832;22;20007;-67
2023/02/21 08:53:34;;;;;;;62.17;41.27;;;8.50;99.20;;;;;;6275330;22;20007;-68
2023/02/21 08:56:00;;;;;;;65.20;41.17;;;8.50;99.20;;;;;;6276271;22;20003;-68
2023/02/21 08:58:26;;;;;;;62.13;40.60;;;8.50;99.20;;;;;;6276542;22;20004;-68
2023/02/21 09:00:51;;;;;;;64.47;40.30;;;8.50;99.20;;;;;;6276276;22;20046;-68
2023/02/21 09:03:17;;;;;;;63.63;38.30;;;8.50;99.20;;;;;;6276229;22;20085;-68
2023/02/21 09:05:43;;;;;;;58.40;38.13;;;8.60;99.20;;;;;;6276488;22;20000;-67
2023/02/21 09:08:09;;;;;;;58.57;38.63;;;8.60;99.10;;;;;;6276424;22;20003;-76
2023/02/21 09:10:35;;;;;;;59.57;39.30;;;8.60;99.00;;;;;;6276539;22;19999;-67
2023/02/21 09:13:02;;;;;;;59.20;38.37;;;8.60;99.00;;;;;;6276421;22;20326;-67
2023/02/21 09:15:28;;;;;;;60.73;37.97;;;8.60;99.00;;;;;;6276379;22;19999;-68
2023/02/21 09:17:55;;;;;;;64.70;41.80;;;8.60;98.90;;;;;;6276477;22;20014;-66
2023/02/21 09:20:24;;;;;;;60.27;40.20;;;8.70;98.90;;;;;;6276773;22;20449;-66
2023/02/21 09:22:50;;;;;;;63.70;39.77;;;8.70;98.90;;;;;;6276657;22;20335;-66
2023/02/21 09:25:19;;;;;;;60.20;38.40;;;8.70;98.90;;;;;;6276834;22;20468;-66
2023/02/21 09:27:44;;;;;;;64.20;39.93;;;8.70;98.80;;;;;;6276264;22;20437;-66
2023/02/21 09:30:14;;;;;;;70.17;39.00;;;8.70;98.70;;;;;;6276868;22;20033;-66
2023/02/21 09:32:40;;;;;;;75.33;39.93;;;8.70;98.50;;;;;;6276711;22;20004;-66
2023/02/21 09:35:08;;;;;;;62.07;40.53;;;8.80;98.50;;;;;;6276863;22;19996;-66
2023/02/21 09:37:37;;;;;;;71.53;41.57;;;8.80;98.40;;;;;;6276383;22;20071;-67
2023/02/21 09:40:07;;;;;;;64.90;40.20;;;8.80;98.40;;;;;;6276406;22;20034;-67
2023/02/21 09:42:35;;;;;;;60.87;40.20;;;8.80;98.40;;;;;;6276645;22;20011;-67
2023/02/21 09:45:01;;;;;;;69.27;40.87;;;8.80;98.40;;;;;;6276239;22;19999;-67
2023/02/21 09:47:30;;;;;;;59.67;39.63;;;8.80;98.40;;;;;;6276185;22;20060;-67
2023/02/21 09:50:06;;;;;;;59.20;40.93;;;8.80;98.40;;;;;;6276156;22;20006;-68
2023/02/21 09:52:37;;;;;;;65.50;40.00;;;8.80;98.30;;;;;;6276266;22;19996;-67
2023/02/21 09:55:35;;;;;;;62.63;40.97;;;8.90;98.20;;;;;;6276337;22;20000;-67
2023/02/21 09:58:01;;;;;;;63.57;40.17;;;8.90;98.20;;;;;;6276212;22;20004;-67
2023/02/21 10:00:37;;;;;;;63.10;40.87;;;8.90;98.10;;;;;;6275706;22;20422;-67
2023/02/21 10:03:30;;;;;;;63.13;41.00;;;9.00;98.00;;;;;;6275162;22;20012;-66
2023/02/21 10:06:17;;;;;;;68.38;43.10;;;9.00;98.10;;;;;;6275759;22;20521;-70
2023/02/21 10:08:58;;;;;;;66.23;41.27;;;9.00;98.00;;;;;;6275731;22;20433;-66
2023/02/21 10:11:35;;;;;;;66.63;42.10;;;9.00;98.00;;;;;;6275764;22;20071;-67
2023/02/21 10:14:36;;;;;;;69.07;44.97;;;9.10;98.00;;;;;;6275859;22;20078;-67
2023/02/21 10:17:17;;;;;;;61.63;42.27;;;9.10;98.10;;;;;;6276006;22;20418;-67
2023/02/21 10:19:47;;;;;;;73.17;44.73;;;9.10;98.10;;;;;;6276005;22;20075;-67
2023/02/21 10:22:19;;;;;;;68.57;43.97;;;9.10;98.10;;;;;;6276001;22;20414;-67
2023/02/21 10:24:48;;;;;;;69.90;43.63;;;9.20;98.30;;;;;;6276373;22;19996;-67
2023/02/21 10:27:18;;;;;;;70.63;44.07;;;9.20;98.30;;;;;;6276207;22;20065;-67
2023/02/21 10:29:55;;;;;;;71.60;43.53;;;9.20;98.10;;;;;;6276479;22;20003;-67
2023/02/21 10:32:23;;;;;;;63.33;41.97;;;9.20;98.00;;;;;;6275982;22;20012;-67
2023/02/21 10:34:50;;;;;;;72.30;45.50;;;9.30;98.30;;;;;;6276069;22;19996;-67
2023/02/21 10:37:29;;;;;;;73.17;45.40;;;9.30;98.10;;;;;;6276069;22;20322;-69
2023/02/21 10:40:12;;;;;;;69.57;47.47;;;9.30;98.00;;;;;;6276242;22;20042;-67
2023/02/21 10:42:53;;;;;;;71.43;47.13;;;9.30;97.90;;;;;;6276168;22;20016;-68
2023/02/21 10:45:31;;;;;;;72.07;47.23;;;9.40;97.80;;;;;;6276027;22;20046;-68
2023/02/21 10:48:10;;;;;;;74.90;48.30;;;9.40;97.80;;;;;;6275443;22;20073;-68
2023/02/21 10:50:40;;;;;;;72.73;47.63;;;9.40;97.80;;;;;;6274964;22;20034;-67
2023/02/21 10:53:07;;;;;;;69.63;47.70;;;9.50;97.90;;;;;;6275868;22;20039;-67
2023/02/21 10:55:33;;;;;;;76.07;47.10;;;9.50;97.80;;;;;;6275818;22;20056;-67
2023/02/21 10:58:07;;;;;;;74.20;47.93;;;9.50;97.70;;;;;;6275315;22;20000;-67
2023/02/21 11:00:37;;;;;;;70.87;45.80;;;9.60;97.80;;;;;;6275231;22;20530;-67
2023/02/21 11:03:25;;;;;;;74.53;45.93;;;9.60;97.80;;;;;;6275842;22;20016;-66
2023/02/21 11:05:56;;;;;;;78.13;46.67;;;9.60;97.70;;;;;;6275590;22;20004;-66
2023/02/21 11:08:42;;;;;;;76.17;47.43;;;9.60;97.60;;;;;;6275066;22;20007;-67
2023/02/21 11:11:09;;;;;;;76.07;46.10;;;9.70;97.60;;;;;;6275286;22;20474;-67
2023/02/21 11:13:36;;;;;;;73.23;46.30;;;9.70;97.50;;;;;;6275281;22;20061;-67
2023/02/21 11:16:16;;;;;;;71.87;47.97;;;9.70;97.50;;;;;;6274908;22;20430;-68
2023/02/21 11:18:42;;;;;;;79.40;47.40;;;9.70;97.40;;;;;;6275475;22;20000;-67
2023/02/21 11:21:18;;;;;;;73.43;47.23;;;9.70;97.40;;;;;;6275051;22;20008;-67
2023/02/21 11:24:04;;;;;;;78.23;45.57;;;9.80;97.40;;;;;;6274440;22;20007;-67
2023/02/21 11:26:36;;;;;;;74.43;46.97;;;9.80;97.40;;;;;;6273942;22;20000;-67
2023/02/21 11:29:11;;;;;;;76.47;47.60;;;9.80;97.30;;;;;;6274740;22;20030;-68
2023/02/21 11:31:38;;;;;;;77.50;47.67;;;9.80;97.30;;;;;;6274818;22;20000;-68
2023/02/21 11:34:07;;;;;;;78.77;48.70;;;9.90;97.40;;;;;;6275186;22;20007;-68
2023/02/21 11:36:40;;;;;;;78.20;49.33;;;9.90;97.40;;;;;;6274890;22;20045;-67
2023/02/21 11:39:20;;;;;;;75.32;48.17;;;9.90;97.30;;;;;;6275166;22;19999;-67
2023/02/21 11:42:03;;;;;;;75.47;47.47;;;10.00;97.20;;;;;;6276468;22;20514;-67
2023/02/21 11:44:36;;;;;;;77.73;47.53;;;10.00;97.20;;;;;;6276786;22;20038;-67
2023/02/21 11:47:17;;;;;;;;;;;10.00;97.10;;;;;;6277006;22;20003;-68
2023/02/21 11:50:10;;;;;;;86.17;50.90;;;10.00;97.00;;;;;;6277122;22;19905;-67
2023/02/21 11:52:47;;;;;;;83.18;51.05;;;10.10;96.90;;;;;;6276897;22;20000;-67
2023/02/21 11:55:19;;;;;;;81.00;50.20;;;10.10;96.80;;;;;;6277705;22;20085;-67
2023/02/21 11:58:03;;;;;;;83.23;48.30;;;10.10;96.70;;;;;;6278022;22;20004;-69
2023/02/21 12:00:31;;;;;;;84.87;51.97;;;10.10;96.70;;;;;;6277924;22;20006;-67
2023/02/21 12:02:57;;;;;;;74.97;47.53;;;10.20;96.60;;;;;;6277701;22;20427;-67
2023/02/21 12:05:50;;;;;;;72.90;47.45;;;10.20;96.60;;;;;;6277857;22;20000;-67
2023/02/21 12:08:24;;;;;;;78.03;48.08;;;10.20;96.60;;;;;;6277668;22;20011;-68
2023/02/21 12:11:21;;;;;;;79.50;48.40;;;10.20;96.50;;;;;;6278218;22;20330;-67
2023/02/21 12:14:24;;;;;;;85.57;49.97;;;10.30;96.40;;;;;;6277955;22;20054;-68
2023/02/21 12:17:08;;;;;;;;;;;10.30;96.40;;;;;;6184456;23;20442;-68
2023/02/21 12:19:45;;;;;;;82.33;48.40;;;10.30;96.40;;;;;;6271709;22;19979;-67
2023/02/21 12:22:23;;;;;;;83.27;51.63;;;10.30;96.30;;;;;;6277069;22;20024;-68
2023/02/21 12:25:17;;;;;;;81.93;50.63;;;10.40;96.40;;;;;;6276983;22;20027;-67
2023/02/21 12:28:04;;;;;;;76.97;49.40;;;10.40;96.30;;;;;;6277472;22;20007;-67
2023/02/21 12:30:35;;;;;;;84.20;48.83;;;10.40;96.20;;;;;;6277535;22;19999;-67
2023/02/21 12:33:45;;;;;;;76.50;49.13;;;10.40;96.30;;;;;;6277600;22;20082;-68
2023/02/21 12:36:25;;;;;;;76.03;49.70;;;10.40;96.20;;;;;;6250351;22;20014;-67
2023/02/21 12:38:59;;;;;;;89.47;51.47;;;10.50;96.10;;;;;;6273335;22;19999;-68
2023/02/21 12:42:02;;;;;;;82.10;50.77;;;10.50;96.10;;;;;;6275925;22;20090;-67
2023/02/21 12:44:36;;;;;;;80.85;48.38;;;10.50;96.20;;;;;;6277039;22;20012;-67
2023/02/21 12:47:13;;;;;;;82.20;49.90;;;10.50;96.00;;;;;;6276443;22;20023;-68
2023/02/21 12:50:02;;;;;;;89.22;51.00;;;10.50;95.90;;;;;;6249148;22;20448;-68
2023/02/21 12:53:02;;;;;;;84.20;50.47;;;10.60;95.80;;;;;;6276462;22;20004;-68
2023/02/21 12:55:51;;;;;;;78.35;50.72;;;10.60;95.70;;;;;;6272423;22;20036;-68
2023/02/21 12:58:27;;;;;;;83.50;51.13;;;10.60;95.70;;;;;;6276943;22;20000;-67
2023/02/21 13:01:10;;;;;;;82.32;50.75;;;10.60;95.60;;;;;;6277157;22;20422;-67
2023/02/21 13:03:54;;;;;;;81.17;52.13;;;10.60;95.60;;;;;;6276077;22;20099;-67
2023/02/21 13:06:55;;;;;;;81.25;50.97;;;10.60;95.60;;;;;;6276290;22;20004;-68
2023/02/21 13:09:39;;;;;;;76.83;51.03;;;10.60;95.60;;;;;;6276495;22;20003;-68
2023/02/21 13:12:20;;;;;;;78.25;50.30;;;10.70;95.60;;;;;;6275641;22;20461;-68
2023/02/21 13:14:55;;;;;;;81.93;51.55;;;10.70;95.60;;;;;;6276167;22;20000;-67
2023/02/21 13:17:21;;;;;;;83.68;51.80;;;10.70;95.70;;;;;;6275949;22;20326;-67
2023/02/21 13:20:08;;;;;;;91.32;53.88;;;10.70;95.80;;;;;;6276017;22;20291;-68
2023/02/21 13:23:11;;;;;;;80.53;49.70;;;10.80;95.80;;;;;;6247211;22;20412;-67
2023/02/21 13:25:45;;;;;;;86.15;51.92;;;10.80;95.60;;;;;;6273357;22;20004;-67
2023/02/21 13:28:24;;;;;;;83.30;52.88;;;10.80;95.70;;;;;;6275077;22;20418;-67
2023/02/21 13:30:59;;;;;;;77.40;49.72;;;10.80;95.70;;;;;;6276423;22;20010;-67
2023/02/21 13:33:45;;;;;;;79.90;50.75;;;10.80;95.70;;;;;;6276981;22;20083;-67
2023/02/21 13:36:43;;;;;;;87.50;53.25;;;10.80;95.90;;;;;;6277011;22;20011;-67
2023/02/21 13:39:29;;;;;;;84.35;52.33;;;10.90;95.60;;;;;;6276278;22;20023;-67
2023/02/21 13:42:10;;;;;;;85.78;52.67;;;10.90;95.60;;;;;;6276257;22;20014;-67
2023/02/21 13:44:41;;;;;;;83.00;52.20;;;10.90;95.60;;;;;;6276185;22;20053;-68
2023/02/21 13:47:16;;;;;;;84.70;52.95;;;10.90;95.60;;;;;;6276731;22;20000;-68
2023/02/21 13:49:42;;;;;;;88.63;52.80;;;10.90;95.60;;;;;;6276433;22;20000;-67
2023/02/21 13:52:22;;;;;;;84.50;52.22;;;10.90;95.50;;;;;;6276293;22;20087;-67
2023/02/21 13:55:09;;;;;;;82.47;51.55;;;10.90;95.40;;;;;;6276142;22;20326;-68
2023/02/21 13:57:39;;;;;;;87.43;52.37;;;10.90;95.50;;;;;;6276428;22;20006;-68
2023/02/21 14:00:31;;;;;;;95.38;54.30;;;11.00;95.50;;;;;;6276769;22;19996;-68
2023/02/21 14:03:00;;;;;;;83.47;52.17;;;11.00;95.70;;;;;;6265273;22;20047;-67
2023/02/21 14:05:49;;;;;;;80.50;50.97;;;11.00;95.40;;;;;;6276456;22;20357;-67
2023/02/21 14:08:36;;;;;;;83.40;51.90;;;11.00;95.40;;;;;;6274061;22;20330;-68
2023/02/21 14:11:05;;;;;;;82.53;52.20;;;11.00;95.50;;;;;;6274827;22;20365;-67
2023/02/21 14:13:31;;;;;;;82.70;52.65;;;10.90;95.50;;;;;;6275772;22;20422;-68
2023/02/21 14:16:08;;;;;;;80.03;51.10;;;11.00;95.60;;;;;;6276106;22;20011;-67
2023/02/21 14:18:55;;;;;;;80.60;51.10;;;11.00;95.60;;;;;;6275282;22;20000;-67
2023/02/21 14:22:01;;;;;;;87.43;53.20;;;11.00;95.60;;;;;;6274693;22;20030;-67
2023/02/21 14:24:31;;;;;;;79.32;52.88;;;11.00;95.80;;;;;;6181934;23;20071;-68
2023/02/21 14:27:09;;;;;;;84.18;52.92;;;11.00;95.70;;;;;;6260414;22;20004;-67
2023/02/21 14:29:41;;;;;;;85.25;53.58;;;11.00;95.60;;;;;;6275398;22;20470;-67
2023/02/21 14:32:07;;;;;;;81.05;50.20;;;11.00;95.60;;;;;;6275817;22;20440;-67
2023/02/21 14:34:53;;;;;;;90.72;53.38;;;11.00;95.60;;;;;;6275357;22;20078;-67
2023/02/21 14:37:37;;;;;;;79.65;51.92;;;11.00;95.60;;;;;;6275518;22;20046;-67
2023/02/21 14:40:23;;;;;;;91.88;52.40;;;11.00;95.70;;;;;;6275630;22;20087;-67
2023/02/21 14:43:23;;;;;;;91.00;53.60;;;11.00;95.70;;;;;;6274315;22;20022;-67
2023/02/21 14:46:01;;;;;;;90.43;52.25;;;11.00;95.70;;;;;;6275001;22;20004;-67
2023/02/21 14:48:32;;;;;;;92.88;55.13;;;11.00;95.70;;;;;;6275375;22;20082;-67
2023/02/21 14:51:13;;;;;;;89.40;55.25;;;11.00;95.80;;;;;;6275746;22;20488;-67
2023/02/21 14:54:04;;;;;;;88.28;53.85;;;11.00;95.80;;;;;;6275391;22;19996;-68
2023/02/21 14:56:29;;;;;;;88.38;54.60;;;11.00;95.80;;;;;;6275252;22;19999;-67
2023/02/21 14:59:15;;;;;;;89.75;54.63;;;11.00;95.80;;;;;;6275434;22;20070;-67
2023/02/21 15:02:15;;;;;;;87.03;52.55;;;11.00;95.80;;;;;;6275144;22;20449;-67
2023/02/21 15:05:01;;;;;;;85.13;53.20;;;11.00;95.90;;;;;;6275319;22;20011;-67
2023/02/21 15:07:32;;;;;;;88.47;52.70;;;11.00;96.00;;;;;;6247477;22;19999;-67
2023/02/21 15:10:20;;;;;;;87.95;53.72;;;11.00;96.10;;;;;;6274649;22;20010;-67
2023/02/21 15:12:51;;;;;;;93.63;55.90;;;11.00;96.10;;;;;;6275299;22;20000;-67
2023/02/21 15:15:27;;;;;;;91.10;57.00;;;11.00;96.00;;;;;;6275270;22;20010;-67
2023/02/21 15:18:08;;;;;;;85.15;53.53;;;11.00;96.10;;;;;;6274738;22;20508;-67